Sy Asahi — ZGBG5 — position and weather

sailwx.info

Track history (hours):
 
Tides and Currents Weather Stations Pressure Air Temp Water Temp Dewpoint Dewpoint Depression Visibility Wind Speed Wind Dir Waves Ship Positions

Sy Asahi

Last reported at 2017-Apr-24 05:34 UTC. Time now 2017-Apr-25 22:20 UTC.
Position N 31°30' W 117°51'.

Length 56 m; draft 4 m.

Type: Pleasure craft. MMSI: 319266000.

Date/timePositionNaut miles runAvg speedWind from/ knotsBaromVisibWave heightAir tempDewpointWater temp
2017-Apr-24 05:34N 31°30' W 117°51'213.7
2017-Apr-24 05:24N 31°32' W 117°52'513.3
2017-Apr-24 05:00N 31°37' W 117°53'813.5
2017-Apr-24 04:26N 31°45' W 117°55'613.8
2017-Apr-24 04:01N 31°50' W 117°57'713.5
2017-Apr-24 03:30N 31°57' W 117°58'713.7
2017-Apr-24 03:00N 32°03' W 118°01'1814.0
2017-Apr-24 01:45N 32°20' W 118°08'413.9
2017-Apr-24 01:29N 32°23' W 118°10'1214.0
2017-Apr-24 00:36N 32°35' W 118°16'114.3
2017-Apr-24 00:30N 32°36' W 118°16'714.0
2017-Apr-24 00:01N 32°43' W 118°15'714.0
2017-Apr-23 23:30N 32°50' W 118°14'714.1
2017-Apr-23 23:00N 32°57' W 118°13'713.8
2017-Apr-23 22:30N 33°04' W 118°12'913.9
2017-Apr-23 21:50N 33°13' W 118°11'513.9
2017-Apr-23 21:30N 33°18' W 118°10'713.3
2017-Apr-23 20:59N 33°24' W 118°13'913.8
2017-Apr-23 20:21N 33°30' W 118°21'514.2
2017-Apr-23 20:00N 33°33' W 118°26'913.1
2017-Apr-23 19:18N 33°42' W 118°29'414.3
2017-Apr-23 19:00N 33°46' W 118°28'13 0.3
2017-Apr-22 05:08N 33°58' W 118°27'0 0.0
2017-Apr-22 04:56N 33°58' W 118°27'  
Track history (hours):
 
Tides and Currents Weather Stations Pressure Air Temp Water Temp Dewpoint Dewpoint Depression Visibility Wind Speed Wind Dir Waves Ship Positions

Sy Asahi

Last reported at 2017-Apr-24 05:34 UTC. Time now 2017-Apr-25 22:20 UTC.
Position N 31°30' W 117°51'.

Length 56 m; draft 4 m.

Type: Pleasure craft. MMSI: 319266000.

Date/timePositionNaut miles runAvg speedWind from/ knotsBaromVisibWave heightAir tempDewpointWater temp
2017-Apr-24 05:34N 31°30' W 117°51'213.7
2017-Apr-24 05:24N 31°32' W 117°52'513.3
2017-Apr-24 05:00N 31°37' W 117°53'813.5
2017-Apr-24 04:26N 31°45' W 117°55'613.8
2017-Apr-24 04:01N 31°50' W 117°57'713.5
2017-Apr-24 03:30N 31°57' W 117°58'713.7
2017-Apr-24 03:00N 32°03' W 118°01'1814.0
2017-Apr-24 01:45N 32°20' W 118°08'413.9
2017-Apr-24 01:29N 32°23' W 118°10'1214.0
2017-Apr-24 00:36N 32°35' W 118°16'114.3
2017-Apr-24 00:30N 32°36' W 118°16'714.0
2017-Apr-24 00:01N 32°43' W 118°15'714.0
2017-Apr-23 23:30N 32°50' W 118°14'714.1
2017-Apr-23 23:00N 32°57' W 118°13'713.8
2017-Apr-23 22:30N 33°04' W 118°12'913.9
2017-Apr-23 21:50N 33°13' W 118°11'513.9
2017-Apr-23 21:30N 33°18' W 118°10'713.3
2017-Apr-23 20:59N 33°24' W 118°13'913.8
2017-Apr-23 20:21N 33°30' W 118°21'514.2
2017-Apr-23 20:00N 33°33' W 118°26'913.1
2017-Apr-23 19:18N 33°42' W 118°29'414.3
2017-Apr-23 19:00N 33°46' W 118°28'13 0.3
2017-Apr-22 05:08N 33°58' W 118°27'0 0.0
2017-Apr-22 04:56N 33°58' W 118°27'  

Dump ship's entire track history